sensor_id;sensor_type;location;lat;lon;timestamp;P1;durP1;ratioP1;P2;durP2;ratioP2
22034;SDS011;11181;51.002;4.356;2023-05-23T00:02:12;37.70;;;18.37;;
22034;SDS011;11181;51.002;4.356;2023-05-23T00:04:39;34.87;;;18.57;;
22034;SDS011;11181;51.002;4.356;2023-05-23T00:07:07;35.43;;;18.60;;
22034;SDS011;11181;51.002;4.356;2023-05-23T00:09:33;35.87;;;18.23;;
22034;SDS011;11181;51.002;4.356;2023-05-23T00:12:01;33.80;;;18.20;;
22034;SDS011;11181;51.002;4.356;2023-05-23T00:14:28;31.93;;;18.17;;
22034;SDS011;11181;51.002;4.356;2023-05-23T00:16:58;41.00;;;19.33;;
22034;SDS011;11181;51.002;4.356;2023-05-23T00:19:26;34.83;;;17.97;;
22034;SDS011;11181;51.002;4.356;2023-05-23T00:21:53;32.33;;;16.27;;
22034;SDS011;11181;51.002;4.356;2023-05-23T00:24:23;34.77;;;18.70;;
22034;SDS011;11181;51.002;4.356;2023-05-23T00:26:51;41.90;;;20.30;;
22034;SDS011;11181;51.002;4.356;2023-05-23T00:29:18;44.03;;;19.73;;
22034;SDS011;11181;51.002;4.356;2023-05-23T00:31:45;37.13;;;19.03;;
22034;SDS011;11181;51.002;4.356;2023-05-23T00:34:12;37.60;;;18.83;;
22034;SDS011;11181;51.002;4.356;2023-05-23T00:36:40;44.57;;;19.70;;
22034;SDS011;11181;51.002;4.356;2023-05-23T00:39:11;38.43;;;19.07;;
22034;SDS011;11181;51.002;4.356;2023-05-23T00:41:43;39.87;;;19.43;;
22034;SDS011;11181;51.002;4.356;2023-05-23T00:44:10;38.97;;;18.03;;
22034;SDS011;11181;51.002;4.356;2023-05-23T00:46:37;36.77;;;18.13;;
22034;SDS011;11181;51.002;4.356;2023-05-23T00:49:04;38.47;;;19.23;;
22034;SDS011;11181;51.002;4.356;2023-05-23T00:51:32;33.33;;;17.20;;
22034;SDS011;11181;51.002;4.356;2023-05-23T00:54:00;31.20;;;18.47;;
22034;SDS011;11181;51.002;4.356;2023-05-23T00:56:29;34.57;;;18.77;;
22034;SDS011;11181;51.002;4.356;2023-05-23T00:58:56;34.93;;;17.67;;
22034;SDS011;11181;51.002;4.356;2023-05-23T01:01:25;36.03;;;17.90;;
22034;SDS011;11181;51.002;4.356;2023-05-23T01:03:52;31.67;;;18.37;;
22034;SDS011;11181;51.002;4.356;2023-05-23T01:06:19;34.23;;;17.73;;
22034;SDS011;11181;51.002;4.356;2023-05-23T01:08:46;26.77;;;16.20;;
22034;SDS011;11181;51.002;4.356;2023-05-23T01:11:16;28.10;;;15.17;;
22034;SDS011;11181;51.002;4.356;2023-05-23T01:13:50;27.87;;;15.30;;
22034;SDS011;11181;51.002;4.356;2023-05-23T01:16:27;25.23;;;15.60;;
22034;SDS011;11181;51.002;4.356;2023-05-23T01:19:02;21.80;;;13.60;;
22034;SDS011;11181;51.002;4.356;2023-05-23T01:21:39;20.53;;;13.70;;
22034;SDS011;11181;51.002;4.356;2023-05-23T01:24:13;23.47;;;13.43;;
22034;SDS011;11181;51.002;4.356;2023-05-23T01:27:04;22.87;;;14.67;;
22034;SDS011;11181;51.002;4.356;2023-05-23T01:29:37;24.43;;;14.50;;
22034;SDS011;11181;51.002;4.356;2023-05-23T01:32:09;22.40;;;14.67;;
22034;SDS011;11181;51.002;4.356;2023-05-23T01:34:37;23.40;;;14.43;;
22034;SDS011;11181;51.002;4.356;2023-05-23T01:37:07;20.20;;;14.47;;
22034;SDS011;11181;51.002;4.356;2023-05-23T01:39:34;25.10;;;15.27;;
22034;SDS011;11181;51.002;4.356;2023-05-23T01:42:01;18.37;;;13.87;;
22034;SDS011;11181;51.002;4.356;2023-05-23T01:44:29;27.13;;;14.53;;
22034;SDS011;11181;51.002;4.356;2023-05-23T01:46:58;25.63;;;14.57;;
22034;SDS011;11181;51.002;4.356;2023-05-23T01:49:26;23.97;;;14.80;;
22034;SDS011;11181;51.002;4.356;2023-05-23T01:51:53;28.13;;;15.57;;
22034;SDS011;11181;51.002;4.356;2023-05-23T01:54:20;23.37;;;14.57;;
22034;SDS011;11181;51.002;4.356;2023-05-23T01:56:48;25.00;;;14.70;;
22034;SDS011;11181;51.002;4.356;2023-05-23T01:59:15;21.77;;;13.20;;
22034;SDS011;11181;51.002;4.356;2023-05-23T02:01:42;24.30;;;14.00;;
22034;SDS011;11181;51.002;4.356;2023-05-23T02:04:10;24.07;;;12.90;;
22034;SDS011;11181;51.002;4.356;2023-05-23T02:06:38;19.93;;;12.67;;
22034;SDS011;11181;51.002;4.356;2023-05-23T02:09:05;16.63;;;12.37;;
22034;SDS011;11181;51.002;4.356;2023-05-23T02:11:32;20.73;;;12.93;;
22034;SDS011;11181;51.002;4.356;2023-05-23T02:14:00;19.50;;;13.07;;
22034;SDS011;11181;51.002;4.356;2023-05-23T02:16:27;17.33;;;11.10;;
22034;SDS011;11181;51.002;4.356;2023-05-23T02:18:54;20.50;;;11.13;;
22034;SDS011;11181;51.002;4.356;2023-05-23T02:21:23;17.80;;;11.43;;
22034;SDS011;11181;51.002;4.356;2023-05-23T02:23:49;19.93;;;11.60;;
22034;SDS011;11181;51.002;4.356;2023-05-23T02:26:16;21.40;;;11.97;;
22034;SDS011;11181;51.002;4.356;2023-05-23T02:28:43;17.53;;;10.87;;
22034;SDS011;11181;51.002;4.356;2023-05-23T02:31:10;19.37;;;11.30;;
22034;SDS011;11181;51.002;4.356;2023-05-23T02:33:37;26.30;;;12.90;;
22034;SDS011;11181;51.002;4.356;2023-05-23T02:36:04;26.10;;;13.07;;
22034;SDS011;11181;51.002;4.356;2023-05-23T02:38:32;29.07;;;14.20;;
22034;SDS011;11181;51.002;4.356;2023-05-23T02:40:59;26.03;;;12.90;;
22034;SDS011;11181;51.002;4.356;2023-05-23T02:43:26;27.63;;;14.23;;
22034;SDS011;11181;51.002;4.356;2023-05-23T02:45:53;28.83;;;13.80;;
22034;SDS011;11181;51.002;4.356;2023-05-23T02:48:20;26.80;;;13.00;;
22034;SDS011;11181;51.002;4.356;2023-05-23T02:50:47;31.07;;;13.50;;
22034;SDS011;11181;51.002;4.356;2023-05-23T02:53:14;27.70;;;15.47;;
22034;SDS011;11181;51.002;4.356;2023-05-23T02:55:42;29.57;;;15.23;;
22034;SDS011;11181;51.002;4.356;2023-05-23T02:58:09;26.13;;;15.13;;
22034;SDS011;11181;51.002;4.356;2023-05-23T03:00:36;30.00;;;15.47;;
22034;SDS011;11181;51.002;4.356;2023-05-23T03:03:03;26.60;;;14.83;;
22034;SDS011;11181;51.002;4.356;2023-05-23T03:05:30;26.00;;;15.30;;
22034;SDS011;11181;51.002;4.356;2023-05-23T03:07:56;27.20;;;15.13;;
22034;SDS011;11181;51.002;4.356;2023-05-23T03:10:24;37.50;;;16.73;;
22034;SDS011;11181;51.002;4.356;2023-05-23T03:12:52;30.87;;;18.33;;
22034;SDS011;11181;51.002;4.356;2023-05-23T03:15:19;30.57;;;15.53;;
22034;SDS011;11181;51.002;4.356;2023-05-23T03:17:46;29.60;;;17.67;;
22034;SDS011;11181;51.002;4.356;2023-05-23T03:20:13;27.00;;;17.47;;
22034;SDS011;11181;51.002;4.356;2023-05-23T03:22:40;30.87;;;17.40;;
22034;SDS011;11181;51.002;4.356;2023-05-23T03:25:09;30.40;;;18.83;;
22034;SDS011;11181;51.002;4.356;2023-05-23T03:27:36;35.47;;;20.03;;
22034;SDS011;11181;51.002;4.356;2023-05-23T03:30:05;31.47;;;19.67;;
22034;SDS011;11181;51.002;4.356;2023-05-23T03:32:33;32.93;;;20.17;;
22034;SDS011;11181;51.002;4.356;2023-05-23T03:35:00;41.23;;;20.33;;
22034;SDS011;11181;51.002;4.356;2023-05-23T03:37:27;28.00;;;18.90;;
22034;SDS011;11181;51.002;4.356;2023-05-23T03:39:54;26.07;;;17.47;;
22034;SDS011;11181;51.002;4.356;2023-05-23T03:42:21;24.83;;;14.43;;
22034;SDS011;11181;51.002;4.356;2023-05-23T03:44:48;17.23;;;11.10;;
22034;SDS011;11181;51.002;4.356;2023-05-23T03:47:16;20.47;;;11.50;;
22034;SDS011;11181;51.002;4.356;2023-05-23T03:49:43;17.90;;;11.83;;
22034;SDS011;11181;51.002;4.356;2023-05-23T03:52:10;17.57;;;11.07;;
22034;SDS011;11181;51.002;4.356;2023-05-23T03:54:37;17.60;;;10.80;;
22034;SDS011;11181;51.002;4.356;2023-05-23T03:57:04;18.40;;;10.80;;
22034;SDS011;11181;51.002;4.356;2023-05-23T03:59:32;13.60;;;10.17;;
22034;SDS011;11181;51.002;4.356;2023-05-23T04:01:59;14.17;;;10.33;;
22034;SDS011;11181;51.002;4.356;2023-05-23T04:04:27;11.50;;;9.20;;
22034;SDS011;11181;51.002;4.356;2023-05-23T04:06:55;14.73;;;8.63;;
22034;SDS011;11181;51.002;4.356;2023-05-23T04:09:22;18.07;;;10.23;;
22034;SDS011;11181;51.002;4.356;2023-05-23T04:11:50;14.50;;;8.57;;
22034;SDS011;11181;51.002;4.356;2023-05-23T04:14:17;12.50;;;8.67;;
22034;SDS011;11181;51.002;4.356;2023-05-23T04:16:46;13.50;;;8.20;;
22034;SDS011;11181;51.002;4.356;2023-05-23T04:19:13;15.10;;;8.80;;
22034;SDS011;11181;51.002;4.356;2023-05-23T04:21:42;12.80;;;8.97;;
22034;SDS011;11181;51.002;4.356;2023-05-23T04:24:09;12.87;;;10.00;;
22034;SDS011;11181;51.002;4.356;2023-05-23T04:26:36;14.53;;;9.37;;
22034;SDS011;11181;51.002;4.356;2023-05-23T04:29:03;14.27;;;9.63;;
22034;SDS011;11181;51.002;4.356;2023-05-23T04:31:31;18.33;;;11.97;;
22034;SDS011;11181;51.002;4.356;2023-05-23T04:33:59;16.20;;;13.47;;
22034;SDS011;11181;51.002;4.356;2023-05-23T04:36:26;22.70;;;14.23;;
22034;SDS011;11181;51.002;4.356;2023-05-23T04:38:55;20.43;;;14.07;;
22034;SDS011;11181;51.002;4.356;2023-05-23T04:41:22;18.87;;;13.17;;
22034;SDS011;11181;51.002;4.356;2023-05-23T04:43:49;22.13;;;12.43;;
22034;SDS011;11181;51.002;4.356;2023-05-23T04:46:18;19.23;;;11.33;;
22034;SDS011;11181;51.002;4.356;2023-05-23T04:48:50;15.13;;;10.17;;
22034;SDS011;11181;51.002;4.356;2023-05-23T04:51:17;16.47;;;10.00;;
22034;SDS011;11181;51.002;4.356;2023-05-23T04:53:45;15.83;;;10.07;;
22034;SDS011;11181;51.002;4.356;2023-05-23T04:56:14;22.53;;;10.93;;
22034;SDS011;11181;51.002;4.356;2023-05-23T04:58:42;20.47;;;11.30;;
22034;SDS011;11181;51.002;4.356;2023-05-23T05:01:09;21.87;;;10.97;;
22034;SDS011;11181;51.002;4.356;2023-05-23T05:03:36;19.33;;;10.47;;
22034;SDS011;11181;51.002;4.356;2023-05-23T05:06:03;19.00;;;10.43;;
22034;SDS011;11181;51.002;4.356;2023-05-23T05:08:31;19.50;;;10.30;;
22034;SDS011;11181;51.002;4.356;2023-05-23T05:10:58;18.87;;;10.30;;
22034;SDS011;11181;51.002;4.356;2023-05-23T05:13:26;20.07;;;10.57;;
22034;SDS011;11181;51.002;4.356;2023-05-23T05:15:53;17.47;;;9.83;;
22034;SDS011;11181;51.002;4.356;2023-05-23T05:18:20;20.70;;;10.67;;
22034;SDS011;11181;51.002;4.356;2023-05-23T05:20:47;19.07;;;10.30;;
22034;SDS011;11181;51.002;4.356;2023-05-23T05:23:14;20.93;;;10.40;;
22034;SDS011;11181;51.002;4.356;2023-05-23T05:25:40;19.07;;;9.80;;
22034;SDS011;11181;51.002;4.356;2023-05-23T05:28:07;18.60;;;9.77;;
22034;SDS011;11181;51.002;4.356;2023-05-23T05:30:36;25.87;;;9.73;;
22034;SDS011;11181;51.002;4.356;2023-05-23T05:33:03;21.73;;;8.87;;
22034;SDS011;11181;51.002;4.356;2023-05-23T05:35:31;21.73;;;8.53;;
22034;SDS011;11181;51.002;4.356;2023-05-23T05:37:59;24.17;;;9.90;;
22034;SDS011;11181;51.002;4.356;2023-05-23T05:40:26;19.47;;;9.30;;
22034;SDS011;11181;51.002;4.356;2023-05-23T05:42:53;20.10;;;9.13;;
22034;SDS011;11181;51.002;4.356;2023-05-23T05:45:20;31.93;;;9.80;;
22034;SDS011;11181;51.002;4.356;2023-05-23T05:47:48;20.93;;;9.37;;
22034;SDS011;11181;51.002;4.356;2023-05-23T05:50:15;23.23;;;10.73;;
22034;SDS011;11181;51.002;4.356;2023-05-23T05:52:44;25.57;;;10.17;;
22034;SDS011;11181;51.002;4.356;2023-05-23T05:55:11;26.93;;;10.30;;
22034;SDS011;11181;51.002;4.356;2023-05-23T05:57:38;28.43;;;12.63;;
22034;SDS011;11181;51.002;4.356;2023-05-23T06:00:07;23.50;;;12.37;;
22034;SDS011;11181;51.002;4.356;2023-05-23T06:02:39;21.57;;;9.90;;
22034;SDS011;11181;51.002;4.356;2023-05-23T06:05:09;21.90;;;11.03;;
22034;SDS011;11181;51.002;4.356;2023-05-23T06:07:37;25.47;;;9.47;;
22034;SDS011;11181;51.002;4.356;2023-05-23T06:10:04;22.47;;;9.97;;
22034;SDS011;11181;51.002;4.356;2023-05-23T06:12:32;17.63;;;8.70;;
22034;SDS011;11181;51.002;4.356;2023-05-23T06:15:00;27.60;;;8.83;;
22034;SDS011;11181;51.002;4.356;2023-05-23T06:17:27;16.30;;;8.57;;
22034;SDS011;11181;51.002;4.356;2023-05-23T06:19:56;20.27;;;7.67;;
22034;SDS011;11181;51.002;4.356;2023-05-23T06:22:26;14.97;;;6.90;;
22034;SDS011;11181;51.002;4.356;2023-05-23T06:24:53;28.00;;;8.50;;
22034;SDS011;11181;51.002;4.356;2023-05-23T06:27:20;24.20;;;8.60;;
22034;SDS011;11181;51.002;4.356;2023-05-23T06:29:47;71.37;;;15.33;;
22034;SDS011;11181;51.002;4.356;2023-05-23T06:32:14;44.20;;;11.30;;
22034;SDS011;11181;51.002;4.356;2023-05-23T06:34:41;13.57;;;7.47;;
22034;SDS011;11181;51.002;4.356;2023-05-23T06:37:08;11.30;;;5.17;;
22034;SDS011;11181;51.002;4.356;2023-05-23T06:39:36;11.73;;;5.77;;
22034;SDS011;11181;51.002;4.356;2023-05-23T06:42:03;17.30;;;6.77;;
22034;SDS011;11181;51.002;4.356;2023-05-23T06:44:31;12.73;;;6.37;;
22034;SDS011;11181;51.002;4.356;2023-05-23T06:46:57;172.03;;;33.17;;
22034;SDS011;11181;51.002;4.356;2023-05-23T06:49:24;14.47;;;7.50;;
22034;SDS011;11181;51.002;4.356;2023-05-23T06:51:51;14.00;;;7.67;;
22034;SDS011;11181;51.002;4.356;2023-05-23T06:54:18;10.63;;;6.57;;
22034;SDS011;11181;51.002;4.356;2023-05-23T06:56:47;13.50;;;7.00;;
22034;SDS011;11181;51.002;4.356;2023-05-23T06:59:14;17.70;;;8.13;;
22034;SDS011;11181;51.002;4.356;2023-05-23T07:01:41;16.77;;;7.43;;
22034;SDS011;11181;51.002;4.356;2023-05-23T07:04:08;12.10;;;7.13;;
22034;SDS011;11181;51.002;4.356;2023-05-23T07:06:36;17.77;;;7.47;;
22034;SDS011;11181;51.002;4.356;2023-05-23T07:09:03;18.10;;;6.70;;
22034;SDS011;11181;51.002;4.356;2023-05-23T07:11:30;17.43;;;6.77;;
22034;SDS011;11181;51.002;4.356;2023-05-23T07:13:59;17.67;;;7.53;;
22034;SDS011;11181;51.002;4.356;2023-05-23T07:16:26;12.37;;;6.73;;
22034;SDS011;11181;51.002;4.356;2023-05-23T07:18:53;16.50;;;6.57;;
22034;SDS011;11181;51.002;4.356;2023-05-23T07:21:20;14.40;;;6.37;;
22034;SDS011;11181;51.002;4.356;2023-05-23T07:23:47;15.67;;;7.37;;
22034;SDS011;11181;51.002;4.356;2023-05-23T07:26:13;12.90;;;7.20;;
22034;SDS011;11181;51.002;4.356;2023-05-23T07:28:40;10.97;;;6.93;;
22034;SDS011;11181;51.002;4.356;2023-05-23T07:31:09;67.47;;;14.67;;
22034;SDS011;11181;51.002;4.356;2023-05-23T07:33:37;13.10;;;6.93;;
22034;SDS011;11181;51.002;4.356;2023-05-23T07:36:04;20.50;;;8.33;;
22034;SDS011;11181;51.002;4.356;2023-05-23T07:38:31;13.97;;;6.53;;
22034;SDS011;11181;51.002;4.356;2023-05-23T07:40:58;17.07;;;7.70;;
22034;SDS011;11181;51.002;4.356;2023-05-23T07:43:25;15.50;;;6.63;;
22034;SDS011;11181;51.002;4.356;2023-05-23T07:45:52;13.10;;;7.03;;
22034;SDS011;11181;51.002;4.356;2023-05-23T07:48:20;15.87;;;6.33;;
22034;SDS011;11181;51.002;4.356;2023-05-23T07:50:47;16.07;;;6.70;;
22034;SDS011;11181;51.002;4.356;2023-05-23T07:53:19;14.93;;;6.87;;
22034;SDS011;11181;51.002;4.356;2023-05-23T07:55:45;13.87;;;6.67;;
22034;SDS011;11181;51.002;4.356;2023-05-23T07:58:12;17.80;;;7.77;;
22034;SDS011;11181;51.002;4.356;2023-05-23T08:00:40;14.33;;;7.77;;
22034;SDS011;11181;51.002;4.356;2023-05-23T08:03:08;14.80;;;7.63;;
22034;SDS011;11181;51.002;4.356;2023-05-23T08:05:37;10.83;;;7.27;;
22034;SDS011;11181;51.002;4.356;2023-05-23T08:08:04;12.20;;;6.13;;
22034;SDS011;11181;51.002;4.356;2023-05-23T08:10:31;13.70;;;6.20;;
22034;SDS011;11181;51.002;4.356;2023-05-23T08:12:58;12.77;;;6.63;;
22034;SDS011;11181;51.002;4.356;2023-05-23T08:15:30;13.47;;;6.47;;
22034;SDS011;11181;51.002;4.356;2023-05-23T08:17:57;17.00;;;7.50;;
22034;SDS011;11181;51.002;4.356;2023-05-23T08:20:24;11.83;;;6.63;;
22034;SDS011;11181;51.002;4.356;2023-05-23T08:22:57;12.27;;;6.93;;
22034;SDS011;11181;51.002;4.356;2023-05-23T08:25:24;17.97;;;7.20;;
22034;SDS011;11181;51.002;4.356;2023-05-23T08:27:54;32.83;;;8.43;;
22034;SDS011;11181;51.002;4.356;2023-05-23T08:30:22;14.70;;;7.97;;
22034;SDS011;11181;51.002;4.356;2023-05-23T08:32:49;10.73;;;7.73;;
22034;SDS011;11181;51.002;4.356;2023-05-23T08:35:17;18.63;;;9.17;;
22034;SDS011;11181;51.002;4.356;2023-05-23T08:37:44;16.93;;;8.00;;
22034;SDS011;11181;51.002;4.356;2023-05-23T08:40:16;13.10;;;7.57;;
22034;SDS011;11181;51.002;4.356;2023-05-23T08:42:45;18.60;;;8.20;;
22034;SDS011;11181;51.002;4.356;2023-05-23T08:45:12;16.60;;;7.57;;
22034;SDS011;11181;51.002;4.356;2023-05-23T08:47:39;14.57;;;6.70;;
22034;SDS011;11181;51.002;4.356;2023-05-23T08:50:10;11.67;;;5.87;;
22034;SDS011;11181;51.002;4.356;2023-05-23T08:52:41;11.70;;;6.10;;
22034;SDS011;11181;51.002;4.356;2023-05-23T08:55:16;14.07;;;7.03;;
22034;SDS011;11181;51.002;4.356;2023-05-23T08:57:43;12.00;;;7.60;;
22034;SDS011;11181;51.002;4.356;2023-05-23T09:00:12;20.97;;;7.10;;
22034;SDS011;11181;51.002;4.356;2023-05-23T09:02:41;15.73;;;7.17;;
22034;SDS011;11181;51.002;4.356;2023-05-23T09:05:10;16.07;;;6.90;;
22034;SDS011;11181;51.002;4.356;2023-05-23T09:07:37;17.93;;;8.50;;
22034;SDS011;11181;51.002;4.356;2023-05-23T09:10:05;13.23;;;7.90;;
22034;SDS011;11181;51.002;4.356;2023-05-23T09:12:36;12.07;;;7.20;;
22034;SDS011;11181;51.002;4.356;2023-05-23T09:15:03;12.30;;;7.33;;
22034;SDS011;11181;51.002;4.356;2023-05-23T09:17:32;16.17;;;8.37;;
22034;SDS011;11181;51.002;4.356;2023-05-23T09:19:59;15.63;;;7.87;;
22034;SDS011;11181;51.002;4.356;2023-05-23T09:22:27;13.43;;;8.70;;
22034;SDS011;11181;51.002;4.356;2023-05-23T09:24:54;13.80;;;8.33;;
22034;SDS011;11181;51.002;4.356;2023-05-23T09:27:22;12.00;;;8.60;;
22034;SDS011;11181;51.002;4.356;2023-05-23T09:29:50;11.60;;;7.60;;
22034;SDS011;11181;51.002;4.356;2023-05-23T09:32:17;13.30;;;8.67;;
22034;SDS011;11181;51.002;4.356;2023-05-23T09:34:55;14.77;;;8.27;;
22034;SDS011;11181;51.002;4.356;2023-05-23T09:37:24;10.93;;;6.83;;
22034;SDS011;11181;51.002;4.356;2023-05-23T09:39:57;12.27;;;6.57;;
22034;SDS011;11181;51.002;4.356;2023-05-23T09:42:25;11.30;;;6.33;;
22034;SDS011;11181;51.002;4.356;2023-05-23T09:44:59;6.63;;;4.37;;
22034;SDS011;11181;51.002;4.356;2023-05-23T09:47:26;13.20;;;4.73;;
22034;SDS011;11181;51.002;4.356;2023-05-23T09:49:53;9.87;;;4.53;;
22034;SDS011;11181;51.002;4.356;2023-05-23T09:52:20;8.33;;;4.60;;
22034;SDS011;11181;51.002;4.356;2023-05-23T09:54:47;9.33;;;3.93;;
22034;SDS011;11181;51.002;4.356;2023-05-23T09:57:15;9.03;;;2.90;;
22034;SDS011;11181;51.002;4.356;2023-05-23T09:59:45;5.90;;;2.43;;
22034;SDS011;11181;51.002;4.356;2023-05-23T10:02:22;5.07;;;2.20;;
22034;SDS011;11181;51.002;4.356;2023-05-23T10:05:04;3.07;;;2.00;;
22034;SDS011;11181;51.002;4.356;2023-05-23T10:07:34;6.07;;;2.60;;
22034;SDS011;11181;51.002;4.356;2023-05-23T10:10:02;6.50;;;2.57;;
22034;SDS011;11181;51.002;4.356;2023-05-23T10:12:41;8.10;;;3.37;;
22034;SDS011;11181;51.002;4.356;2023-05-23T10:15:14;3.67;;;2.00;;
22034;SDS011;11181;51.002;4.356;2023-05-23T10:18:02;6.07;;;2.73;;
22034;SDS011;11181;51.002;4.356;2023-05-23T10:20:33;5.37;;;2.93;;
22034;SDS011;11181;51.002;4.356;2023-05-23T10:23:02;5.60;;;2.00;;
22034;SDS011;11181;51.002;4.356;2023-05-23T10:25:32;6.63;;;2.17;;
22034;SDS011;11181;51.002;4.356;2023-05-23T10:28:01;7.17;;;2.33;;
22034;SDS011;11181;51.002;4.356;2023-05-23T10:30:28;5.13;;;1.70;;
22034;SDS011;11181;51.002;4.356;2023-05-23T10:32:55;5.07;;;2.60;;
22034;SDS011;11181;51.002;4.356;2023-05-23T10:35:30;6.63;;;3.03;;
22034;SDS011;11181;51.002;4.356;2023-05-23T10:38:06;5.57;;;2.27;;
22034;SDS011;11181;51.002;4.356;2023-05-23T10:40:42;7.10;;;2.70;;
22034;SDS011;11181;51.002;4.356;2023-05-23T10:43:17;7.03;;;3.43;;
22034;SDS011;11181;51.002;4.356;2023-05-23T10:45:50;7.70;;;3.33;;
22034;SDS011;11181;51.002;4.356;2023-05-23T10:48:22;4.97;;;2.83;;
22034;SDS011;11181;51.002;4.356;2023-05-23T10:51:02;4.10;;;2.67;;
22034;SDS011;11181;51.002;4.356;2023-05-23T10:53:31;11.50;;;2.83;;
22034;SDS011;11181;51.002;4.356;2023-05-23T10:56:00;7.33;;;3.00;;
22034;SDS011;11181;51.002;4.356;2023-05-23T10:58:28;12.53;;;3.93;;
22034;SDS011;11181;51.002;4.356;2023-05-23T11:00:56;10.50;;;3.73;;
22034;SDS011;11181;51.002;4.356;2023-05-23T11:03:31;11.53;;;3.00;;
22034;SDS011;11181;51.002;4.356;2023-05-23T11:06:00;9.50;;;3.40;;
22034;SDS011;11181;51.002;4.356;2023-05-23T11:08:35;11.57;;;3.30;;
22034;SDS011;11181;51.002;4.356;2023-05-23T11:11:04;13.83;;;3.53;;
22034;SDS011;11181;51.002;4.356;2023-05-23T11:16:28;15.17;;;3.23;;
22034;SDS011;11181;51.002;4.356;2023-05-23T11:21:56;12.87;;;3.10;;
22034;SDS011;11181;51.002;4.356;2023-05-23T11:27:14;11.17;;;3.10;;
22034;SDS011;11181;51.002;4.356;2023-05-23T11:29:44;11.10;;;2.90;;
22034;SDS011;11181;51.002;4.356;2023-05-23T11:32:22;9.80;;;2.43;;
22034;SDS011;11181;51.002;4.356;2023-05-23T11:34:50;7.17;;;2.30;;
22034;SDS011;11181;51.002;4.356;2023-05-23T11:37:17;6.97;;;2.50;;
22034;SDS011;11181;51.002;4.356;2023-05-23T11:39:45;7.23;;;2.70;;
22034;SDS011;11181;51.002;4.356;2023-05-23T11:42:12;10.63;;;2.90;;
22034;SDS011;11181;51.002;4.356;2023-05-23T11:44:39;12.33;;;2.23;;
22034;SDS011;11181;51.002;4.356;2023-05-23T11:47:06;17.13;;;3.70;;
22034;SDS011;11181;51.002;4.356;2023-05-23T11:49:34;10.03;;;2.97;;
22034;SDS011;11181;51.002;4.356;2023-05-23T11:52:05;12.80;;;3.73;;
22034;SDS011;11181;51.002;4.356;2023-05-23T11:54:32;10.80;;;2.87;;
22034;SDS011;11181;51.002;4.356;2023-05-23T11:56:59;7.77;;;2.97;;
22034;SDS011;11181;51.002;4.356;2023-05-23T11:59:27;9.57;;;2.90;;
22034;SDS011;11181;51.002;4.356;2023-05-23T12:01:54;15.40;;;2.90;;
22034;SDS011;11181;51.002;4.356;2023-05-23T12:04:22;8.13;;;3.37;;
22034;SDS011;11181;51.002;4.356;2023-05-23T12:06:51;8.27;;;2.80;;
22034;SDS011;11181;51.002;4.356;2023-05-23T12:09:19;10.90;;;3.23;;
22034;SDS011;11181;51.002;4.356;2023-05-23T12:11:47;11.40;;;2.80;;
22034;SDS011;11181;51.002;4.356;2023-05-23T12:14:15;13.37;;;3.17;;
22034;SDS011;11181;51.002;4.356;2023-05-23T12:16:43;8.20;;;3.30;;
22034;SDS011;11181;51.002;4.356;2023-05-23T12:19:11;14.00;;;3.80;;
22034;SDS011;11181;51.002;4.356;2023-05-23T12:21:39;7.40;;;2.83;;
22034;SDS011;11181;51.002;4.356;2023-05-23T12:24:13;10.60;;;2.50;;
22034;SDS011;11181;51.002;4.356;2023-05-23T12:26:47;9.20;;;2.73;;
22034;SDS011;11181;51.002;4.356;2023-05-23T12:29:16;8.47;;;2.70;;
22034;SDS011;11181;51.002;4.356;2023-05-23T12:31:47;16.50;;;3.57;;
22034;SDS011;11181;51.002;4.356;2023-05-23T12:34:18;8.20;;;3.20;;
22034;SDS011;11181;51.002;4.356;2023-05-23T12:36:46;8.70;;;2.47;;
22034;SDS011;11181;51.002;4.356;2023-05-23T12:39:14;8.40;;;2.90;;
22034;SDS011;11181;51.002;4.356;2023-05-23T12:41:41;14.17;;;3.47;;
22034;SDS011;11181;51.002;4.356;2023-05-23T12:44:11;9.53;;;3.60;;
22034;SDS011;11181;51.002;4.356;2023-05-23T12:46:41;18.27;;;3.90;;
22034;SDS011;11181;51.002;4.356;2023-05-23T12:49:09;13.93;;;3.00;;
22034;SDS011;11181;51.002;4.356;2023-05-23T12:51:36;12.93;;;3.23;;
22034;SDS011;11181;51.002;4.356;2023-05-23T12:54:03;12.73;;;2.77;;
22034;SDS011;11181;51.002;4.356;2023-05-23T12:56:31;13.97;;;3.07;;
22034;SDS011;11181;51.002;4.356;2023-05-23T12:58:57;22.37;;;3.83;;
22034;SDS011;11181;51.002;4.356;2023-05-23T13:01:27;13.63;;;4.03;;
22034;SDS011;11181;51.002;4.356;2023-05-23T13:03:54;16.88;;;2.90;;
22034;SDS011;11181;51.002;4.356;2023-05-23T13:06:21;7.70;;;2.87;;
22034;SDS011;11181;51.002;4.356;2023-05-23T13:08:48;10.67;;;3.47;;
22034;SDS011;11181;51.002;4.356;2023-05-23T13:11:15;8.97;;;3.33;;
22034;SDS011;11181;51.002;4.356;2023-05-23T13:13:43;10.13;;;3.57;;
22034;SDS011;11181;51.002;4.356;2023-05-23T13:16:10;13.20;;;4.23;;
22034;SDS011;11181;51.002;4.356;2023-05-23T13:18:39;12.53;;;2.90;;
22034;SDS011;11181;51.002;4.356;2023-05-23T13:21:06;9.40;;;2.70;;
22034;SDS011;11181;51.002;4.356;2023-05-23T13:23:33;13.57;;;3.17;;
22034;SDS011;11181;51.002;4.356;2023-05-23T13:26:01;13.40;;;2.53;;
22034;SDS011;11181;51.002;4.356;2023-05-23T13:28:28;7.90;;;2.58;;
22034;SDS011;11181;51.002;4.356;2023-05-23T13:30:55;9.95;;;3.00;;
22034;SDS011;11181;51.002;4.356;2023-05-23T13:33:22;12.40;;;3.40;;
22034;SDS011;11181;51.002;4.356;2023-05-23T13:35:51;9.77;;;2.95;;
22034;SDS011;11181;51.002;4.356;2023-05-23T13:38:18;10.27;;;3.05;;
22034;SDS011;11181;51.002;4.356;2023-05-23T13:40:45;10.27;;;2.75;;
22034;SDS011;11181;51.002;4.356;2023-05-23T13:43:12;7.80;;;2.60;;
22034;SDS011;11181;51.002;4.356;2023-05-23T13:45:39;11.45;;;3.03;;
22034;SDS011;11181;51.002;4.356;2023-05-23T13:48:06;13.25;;;3.00;;
22034;SDS011;11181;51.002;4.356;2023-05-23T13:50:33;14.02;;;3.30;;
22034;SDS011;11181;51.002;4.356;2023-05-23T13:53:02;12.13;;;3.05;;
22034;SDS011;11181;51.002;4.356;2023-05-23T13:55:36;8.17;;;3.27;;
22034;SDS011;11181;51.002;4.356;2023-05-23T13:58:03;7.97;;;2.95;;
22034;SDS011;11181;51.002;4.356;2023-05-23T14:00:30;9.30;;;3.30;;
22034;SDS011;11181;51.002;4.356;2023-05-23T14:02:56;8.50;;;2.42;;
22034;SDS011;11181;51.002;4.356;2023-05-23T14:05:23;4.50;;;2.28;;
22034;SDS011;11181;51.002;4.356;2023-05-23T14:07:50;10.77;;;3.33;;
22034;SDS011;11181;51.002;4.356;2023-05-23T14:10:19;9.80;;;2.67;;
22034;SDS011;11181;51.002;4.356;2023-05-23T14:12:47;8.65;;;2.35;;
22034;SDS011;11181;51.002;4.356;2023-05-23T14:15:14;12.38;;;2.80;;
22034;SDS011;11181;51.002;4.356;2023-05-23T14:17:42;8.50;;;2.90;;
22034;SDS011;11181;51.002;4.356;2023-05-23T14:20:09;7.35;;;2.75;;
22034;SDS011;11181;51.002;4.356;2023-05-23T14:22:36;8.15;;;3.28;;
22034;SDS011;11181;51.002;4.356;2023-05-23T14:25:04;15.20;;;2.17;;
22034;SDS011;11181;51.002;4.356;2023-05-23T14:27:33;7.22;;;2.63;;
22034;SDS011;11181;51.002;4.356;2023-05-23T14:30:00;9.90;;;3.35;;
22034;SDS011;11181;51.002;4.356;2023-05-23T14:32:27;13.43;;;3.08;;
22034;SDS011;11181;51.002;4.356;2023-05-23T14:34:54;6.77;;;2.33;;
22034;SDS011;11181;51.002;4.356;2023-05-23T14:37:21;5.60;;;2.13;;
22034;SDS011;11181;51.002;4.356;2023-05-23T14:39:48;8.60;;;2.77;;
22034;SDS011;11181;51.002;4.356;2023-05-23T14:42:15;5.80;;;2.28;;
22034;SDS011;11181;51.002;4.356;2023-05-23T14:44:43;7.73;;;2.30;;
22034;SDS011;11181;51.002;4.356;2023-05-23T14:47:10;8.33;;;2.20;;
22034;SDS011;11181;51.002;4.356;2023-05-23T14:49:37;8.67;;;2.40;;